Terminal Aerodrome Forecast
Issued by NWS

Home | Current Version | Previous Version | Text Only | Print | Product List | Glossary On
Versions: 1 2 3 4 5 6 7 8 9 10 11 12 13
000
FTUS44 KLIX 242300
TAFMSY
TAF
KMSY 242320Z 2500/2524 18005KT P6SM FEW035 BKN250
     FM250900 24004KT P6SM FEW040
     FM251200 VRB03KT P6SM SCT025
     FM252000 22006KT P6SM SCT040 PROB30 2520/2524 3SM TSRA
      BKN040CB=

USA.gov is the U.S. government's official web portal to all federal, state and local government web resources and services.